sensor_id;sensor_type;location;lat;lon;timestamp;temperature;humidity
32366;DHT22;18837;46.832;16.838;2023-04-23T00:01:06;15.10;83.90
32366;DHT22;18837;46.832;16.838;2023-04-23T00:03:33;15.10;83.00
32366;DHT22;18837;46.832;16.838;2023-04-23T00:06:07;15.10;84.50
32366;DHT22;18837;46.832;16.838;2023-04-23T00:08:34;15.10;84.00
32366;DHT22;18837;46.832;16.838;2023-04-23T00:11:02;15.00;83.90
32366;DHT22;18837;46.832;16.838;2023-04-23T00:13:28;15.00;84.00
32366;DHT22;18837;46.832;16.838;2023-04-23T00:15:54;15.00;84.10
32366;DHT22;18837;46.832;16.838;2023-04-23T00:18:20;15.00;84.10
32366;DHT22;18837;46.832;16.838;2023-04-23T00:20:45;15.00;84.20
32366;DHT22;18837;46.832;16.838;2023-04-23T00:23:11;15.00;84.30
32366;DHT22;18837;46.832;16.838;2023-04-23T00:25:37;15.00;84.10
32366;DHT22;18837;46.832;16.838;2023-04-23T00:28:03;15.00;84.20
32366;DHT22;18837;46.832;16.838;2023-04-23T00:30:28;15.00;84.20
32366;DHT22;18837;46.832;16.838;2023-04-23T00:32:54;15.00;84.30
32366;DHT22;18837;46.832;16.838;2023-04-23T00:35:20;15.00;84.30
32366;DHT22;18837;46.832;16.838;2023-04-23T00:37:46;14.90;84.10
32366;DHT22;18837;46.832;16.838;2023-04-23T00:40:12;14.90;84.50
32366;DHT22;18837;46.832;16.838;2023-04-23T00:42:38;14.90;84.10
32366;DHT22;18837;46.832;16.838;2023-04-23T00:45:07;14.90;84.40
32366;DHT22;18837;46.832;16.838;2023-04-23T00:47:34;14.90;84.60
32366;DHT22;18837;46.832;16.838;2023-04-23T00:50:00;14.90;83.80
32366;DHT22;18837;46.832;16.838;2023-04-23T00:52:26;14.90;84.00
32366;DHT22;18837;46.832;16.838;2023-04-23T00:54:54;14.90;84.30
32366;DHT22;18837;46.832;16.838;2023-04-23T00:57:20;14.90;84.70
32366;DHT22;18837;46.832;16.838;2023-04-23T00:59:47;14.90;83.90
32366;DHT22;18837;46.832;16.838;2023-04-23T01:02:13;14.80;83.80
32366;DHT22;18837;46.832;16.838;2023-04-23T01:04:42;14.80;84.30
32366;DHT22;18837;46.832;16.838;2023-04-23T01:07:10;14.80;84.70
32366;DHT22;18837;46.832;16.838;2023-04-23T01:09:37;14.80;84.30
32366;DHT22;18837;46.832;16.838;2023-04-23T01:12:05;14.80;84.60
32366;DHT22;18837;46.832;16.838;2023-04-23T01:14:31;14.80;84.50
32366;DHT22;18837;46.832;16.838;2023-04-23T01:16:57;14.80;84.60
32366;DHT22;18837;46.832;16.838;2023-04-23T01:19:24;14.80;83.60
32366;DHT22;18837;46.832;16.838;2023-04-23T01:21:50;14.80;84.80
32366;DHT22;18837;46.832;16.838;2023-04-23T01:24:16;14.80;84.30
32366;DHT22;18837;46.832;16.838;2023-04-23T01:26:42;14.80;84.80
32366;DHT22;18837;46.832;16.838;2023-04-23T01:29:08;14.80;84.80
32366;DHT22;18837;46.832;16.838;2023-04-23T01:31:34;14.80;84.70
32366;DHT22;18837;46.832;16.838;2023-04-23T01:34:01;14.80;84.50
32366;DHT22;18837;46.832;16.838;2023-04-23T01:36:27;14.70;84.50
32366;DHT22;18837;46.832;16.838;2023-04-23T01:38:53;14.70;83.70
32366;DHT22;18837;46.832;16.838;2023-04-23T01:41:19;14.70;84.20
32366;DHT22;18837;46.832;16.838;2023-04-23T01:43:48;14.70;84.40
32366;DHT22;18837;46.832;16.838;2023-04-23T01:46:15;14.70;84.50
32366;DHT22;18837;46.832;16.838;2023-04-23T01:48:41;14.70;84.20
32366;DHT22;18837;46.832;16.838;2023-04-23T01:51:07;14.70;84.40
32366;DHT22;18837;46.832;16.838;2023-04-23T01:53:33;14.70;84.20
32366;DHT22;18837;46.832;16.838;2023-04-23T01:55:59;14.70;84.70
32366;DHT22;18837;46.832;16.838;2023-04-23T01:58:25;14.70;84.50
32366;DHT22;18837;46.832;16.838;2023-04-23T02:00:51;14.60;84.40
32366;DHT22;18837;46.832;16.838;2023-04-23T02:03:18;14.60;83.70
32366;DHT22;18837;46.832;16.838;2023-04-23T02:05:44;14.60;83.90
32366;DHT22;18837;46.832;16.838;2023-04-23T02:08:09;14.50;84.00
32366;DHT22;18837;46.832;16.838;2023-04-23T02:10:35;14.50;84.90
32366;DHT22;18837;46.832;16.838;2023-04-23T02:13:02;14.50;84.80
32366;DHT22;18837;46.832;16.838;2023-04-23T02:15:28;14.60;85.10
32366;DHT22;18837;46.832;16.838;2023-04-23T02:17:54;14.50;84.60
32366;DHT22;18837;46.832;16.838;2023-04-23T02:20:20;14.50;84.80
32366;DHT22;18837;46.832;16.838;2023-04-23T02:22:47;14.50;84.60
32366;DHT22;18837;46.832;16.838;2023-04-23T02:25:13;14.50;84.90
32366;DHT22;18837;46.832;16.838;2023-04-23T02:27:41;14.50;84.60
32366;DHT22;18837;46.832;16.838;2023-04-23T02:30:08;14.50;84.70
32366;DHT22;18837;46.832;16.838;2023-04-23T02:32:35;14.50;85.00
32366;DHT22;18837;46.832;16.838;2023-04-23T02:35:02;14.50;84.70
32366;DHT22;18837;46.832;16.838;2023-04-23T02:37:28;14.50;84.80
32366;DHT22;18837;46.832;16.838;2023-04-23T02:39:54;14.50;85.40
32366;DHT22;18837;46.832;16.838;2023-04-23T02:42:20;14.50;85.10
32366;DHT22;18837;46.832;16.838;2023-04-23T02:44:45;14.50;85.10
32366;DHT22;18837;46.832;16.838;2023-04-23T02:47:11;14.40;84.20
32366;DHT22;18837;46.832;16.838;2023-04-23T02:49:37;14.40;84.90
32366;DHT22;18837;46.832;16.838;2023-04-23T02:52:03;14.40;85.00
32366;DHT22;18837;46.832;16.838;2023-04-23T02:54:29;14.40;84.80
32366;DHT22;18837;46.832;16.838;2023-04-23T02:56:57;14.40;84.70
32366;DHT22;18837;46.832;16.838;2023-04-23T02:59:23;14.40;85.90
32366;DHT22;18837;46.832;16.838;2023-04-23T03:01:49;14.30;85.30
32366;DHT22;18837;46.832;16.838;2023-04-23T03:04:16;14.30;85.30
32366;DHT22;18837;46.832;16.838;2023-04-23T03:06:42;14.40;85.40
32366;DHT22;18837;46.832;16.838;2023-04-23T03:09:08;14.30;84.70
32366;DHT22;18837;46.832;16.838;2023-04-23T03:11:34;14.30;84.80
32366;DHT22;18837;46.832;16.838;2023-04-23T03:13:59;14.30;85.10
32366;DHT22;18837;46.832;16.838;2023-04-23T03:16:26;14.30;84.80
32366;DHT22;18837;46.832;16.838;2023-04-23T03:18:53;14.30;85.10
32366;DHT22;18837;46.832;16.838;2023-04-23T03:21:18;14.30;84.70
32366;DHT22;18837;46.832;16.838;2023-04-23T03:23:44;14.30;85.00
32366;DHT22;18837;46.832;16.838;2023-04-23T03:26:10;14.30;85.60
32366;DHT22;18837;46.832;16.838;2023-04-23T03:28:36;14.40;85.40
32366;DHT22;18837;46.832;16.838;2023-04-23T03:31:01;14.20;85.50
32366;DHT22;18837;46.832;16.838;2023-04-23T03:33:27;14.20;85.50
32366;DHT22;18837;46.832;16.838;2023-04-23T03:35:53;14.20;85.40
32366;DHT22;18837;46.832;16.838;2023-04-23T03:38:19;14.20;85.50
32366;DHT22;18837;46.832;16.838;2023-04-23T03:40:45;14.20;85.10
32366;DHT22;18837;46.832;16.838;2023-04-23T03:43:11;14.10;85.40
32366;DHT22;18837;46.832;16.838;2023-04-23T03:45:37;14.10;85.30
32366;DHT22;18837;46.832;16.838;2023-04-23T03:48:03;14.10;85.90
32366;DHT22;18837;46.832;16.838;2023-04-23T03:50:28;14.10;85.20
32366;DHT22;18837;46.832;16.838;2023-04-23T03:52:54;14.10;85.10
32366;DHT22;18837;46.832;16.838;2023-04-23T03:55:20;14.10;85.70
32366;DHT22;18837;46.832;16.838;2023-04-23T03:57:46;14.10;85.20
32366;DHT22;18837;46.832;16.838;2023-04-23T04:00:12;14.10;85.70
32366;DHT22;18837;46.832;16.838;2023-04-23T04:02:38;14.10;85.20
32366;DHT22;18837;46.832;16.838;2023-04-23T04:05:05;14.10;85.00
32366;DHT22;18837;46.832;16.838;2023-04-23T04:07:31;14.00;85.00
32366;DHT22;18837;46.832;16.838;2023-04-23T04:09:58;14.00;85.70
32366;DHT22;18837;46.832;16.838;2023-04-23T04:12:23;14.00;85.70
32366;DHT22;18837;46.832;16.838;2023-04-23T04:14:51;14.00;85.80
32366;DHT22;18837;46.832;16.838;2023-04-23T04:17:16;14.00;84.70
32366;DHT22;18837;46.832;16.838;2023-04-23T04:19:43;14.00;85.80
32366;DHT22;18837;46.832;16.838;2023-04-23T04:22:09;13.90;85.70
32366;DHT22;18837;46.832;16.838;2023-04-23T04:24:35;13.90;86.10
32366;DHT22;18837;46.832;16.838;2023-04-23T04:27:01;13.90;85.30
32366;DHT22;18837;46.832;16.838;2023-04-23T04:29:27;13.90;85.70
32366;DHT22;18837;46.832;16.838;2023-04-23T04:31:53;13.90;86.40
32366;DHT22;18837;46.832;16.838;2023-04-23T04:34:19;13.90;86.30
32366;DHT22;18837;46.832;16.838;2023-04-23T04:36:45;13.90;86.30
32366;DHT22;18837;46.832;16.838;2023-04-23T04:39:12;13.90;86.00
32366;DHT22;18837;46.832;16.838;2023-04-23T04:41:41;13.90;86.10
32366;DHT22;18837;46.832;16.838;2023-04-23T04:44:08;13.90;85.80
32366;DHT22;18837;46.832;16.838;2023-04-23T04:46:33;13.90;85.70
32366;DHT22;18837;46.832;16.838;2023-04-23T04:49:08;13.90;86.50
32366;DHT22;18837;46.832;16.838;2023-04-23T04:51:35;13.90;86.30
32366;DHT22;18837;46.832;16.838;2023-04-23T04:54:01;13.80;86.10
32366;DHT22;18837;46.832;16.838;2023-04-23T04:56:27;13.90;86.30
32366;DHT22;18837;46.832;16.838;2023-04-23T04:58:53;13.80;85.60
32366;DHT22;18837;46.832;16.838;2023-04-23T05:01:20;13.80;85.80
32366;DHT22;18837;46.832;16.838;2023-04-23T05:03:47;13.80;85.80
32366;DHT22;18837;46.832;16.838;2023-04-23T05:06:13;13.80;86.20
32366;DHT22;18837;46.832;16.838;2023-04-23T05:08:39;13.80;85.80
32366;DHT22;18837;46.832;16.838;2023-04-23T05:11:05;13.80;86.30
32366;DHT22;18837;46.832;16.838;2023-04-23T05:13:31;13.80;86.10
32366;DHT22;18837;46.832;16.838;2023-04-23T05:15:57;13.80;85.70
32366;DHT22;18837;46.832;16.838;2023-04-23T05:18:24;13.80;85.30
32366;DHT22;18837;46.832;16.838;2023-04-23T05:20:50;13.80;85.50
32366;DHT22;18837;46.832;16.838;2023-04-23T05:23:16;13.80;86.10
32366;DHT22;18837;46.832;16.838;2023-04-23T05:25:44;13.80;85.70
32366;DHT22;18837;46.832;16.838;2023-04-23T05:28:10;13.90;86.00
32366;DHT22;18837;46.832;16.838;2023-04-23T05:30:36;13.90;85.80
32366;DHT22;18837;46.832;16.838;2023-04-23T05:33:02;13.90;85.20
32366;DHT22;18837;46.832;16.838;2023-04-23T05:35:28;13.90;85.30
32366;DHT22;18837;46.832;16.838;2023-04-23T05:37:56;13.90;85.20
32366;DHT22;18837;46.832;16.838;2023-04-23T05:40:22;13.90;85.20
32366;DHT22;18837;46.832;16.838;2023-04-23T05:42:48;13.90;85.80
32366;DHT22;18837;46.832;16.838;2023-04-23T05:45:14;13.90;84.60
32366;DHT22;18837;46.832;16.838;2023-04-23T05:47:40;13.90;85.40
32366;DHT22;18837;46.832;16.838;2023-04-23T05:50:06;13.90;85.50
32366;DHT22;18837;46.832;16.838;2023-04-23T05:52:32;13.90;84.70
32366;DHT22;18837;46.832;16.838;2023-04-23T05:55:00;13.90;85.10
32366;DHT22;18837;46.832;16.838;2023-04-23T05:57:25;13.90;85.40
32366;DHT22;18837;46.832;16.838;2023-04-23T05:59:51;14.00;84.80
32366;DHT22;18837;46.832;16.838;2023-04-23T06:02:17;14.00;85.00
32366;DHT22;18837;46.832;16.838;2023-04-23T06:04:43;14.00;85.10
32366;DHT22;18837;46.832;16.838;2023-04-23T06:07:08;14.00;84.20
32366;DHT22;18837;46.832;16.838;2023-04-23T06:09:34;14.00;84.70
32366;DHT22;18837;46.832;16.838;2023-04-23T06:12:01;14.00;85.00
32366;DHT22;18837;46.832;16.838;2023-04-23T06:14:27;14.00;84.50
32366;DHT22;18837;46.832;16.838;2023-04-23T06:16:54;14.00;84.30
32366;DHT22;18837;46.832;16.838;2023-04-23T06:19:20;14.00;84.70
32366;DHT22;18837;46.832;16.838;2023-04-23T06:21:45;14.00;84.30
32366;DHT22;18837;46.832;16.838;2023-04-23T06:24:11;14.00;84.40
32366;DHT22;18837;46.832;16.838;2023-04-23T06:26:37;14.00;84.40
32366;DHT22;18837;46.832;16.838;2023-04-23T06:29:02;14.00;84.40
32366;DHT22;18837;46.832;16.838;2023-04-23T06:31:28;14.00;84.20
32366;DHT22;18837;46.832;16.838;2023-04-23T06:33:54;14.10;84.10
32366;DHT22;18837;46.832;16.838;2023-04-23T06:36:20;14.10;84.30
32366;DHT22;18837;46.832;16.838;2023-04-23T06:38:46;14.10;84.40
32366;DHT22;18837;46.832;16.838;2023-04-23T06:41:11;14.10;84.70
32366;DHT22;18837;46.832;16.838;2023-04-23T06:43:37;14.10;84.50
32366;DHT22;18837;46.832;16.838;2023-04-23T06:46:03;14.10;84.30
32366;DHT22;18837;46.832;16.838;2023-04-23T06:48:29;14.10;83.80
32366;DHT22;18837;46.832;16.838;2023-04-23T06:50:57;14.10;84.00
32366;DHT22;18837;46.832;16.838;2023-04-23T06:53:23;14.20;83.90
32366;DHT22;18837;46.832;16.838;2023-04-23T06:55:49;14.20;83.60
32366;DHT22;18837;46.832;16.838;2023-04-23T06:58:16;14.20;83.60
32366;DHT22;18837;46.832;16.838;2023-04-23T07:00:43;14.20;83.80
32366;DHT22;18837;46.832;16.838;2023-04-23T07:03:08;14.20;83.60
32366;DHT22;18837;46.832;16.838;2023-04-23T07:05:34;14.30;83.60
32366;DHT22;18837;46.832;16.838;2023-04-23T07:08:00;14.30;83.50
32366;DHT22;18837;46.832;16.838;2023-04-23T07:10:26;14.30;83.50
32366;DHT22;18837;46.832;16.838;2023-04-23T07:12:52;14.30;83.20
32366;DHT22;18837;46.832;16.838;2023-04-23T07:15:17;14.40;83.30
32366;DHT22;18837;46.832;16.838;2023-04-23T07:17:43;14.40;83.20
32366;DHT22;18837;46.832;16.838;2023-04-23T07:20:09;14.40;83.10
32366;DHT22;18837;46.832;16.838;2023-04-23T07:22:34;14.50;82.90
32366;DHT22;18837;46.832;16.838;2023-04-23T07:25:01;14.50;82.90
32366;DHT22;18837;46.832;16.838;2023-04-23T07:27:28;14.50;82.70
32366;DHT22;18837;46.832;16.838;2023-04-23T07:29:54;14.60;83.30
32366;DHT22;18837;46.832;16.838;2023-04-23T07:32:20;14.60;83.00
32366;DHT22;18837;46.832;16.838;2023-04-23T07:34:48;14.60;83.30
32366;DHT22;18837;46.832;16.838;2023-04-23T07:37:14;14.70;83.20
32366;DHT22;18837;46.832;16.838;2023-04-23T07:39:39;14.80;83.30
32366;DHT22;18837;46.832;16.838;2023-04-23T07:42:05;14.80;83.30
32366;DHT22;18837;46.832;16.838;2023-04-23T07:44:31;14.80;83.60
32366;DHT22;18837;46.832;16.838;2023-04-23T07:46:56;14.90;84.20
32366;DHT22;18837;46.832;16.838;2023-04-23T07:49:22;15.00;83.90
32366;DHT22;18837;46.832;16.838;2023-04-23T07:51:48;15.00;84.40
32366;DHT22;18837;46.832;16.838;2023-04-23T07:54:14;15.10;84.60
32366;DHT22;18837;46.832;16.838;2023-04-23T07:56:40;15.20;84.10
32366;DHT22;18837;46.832;16.838;2023-04-23T07:59:05;15.20;84.30
32366;DHT22;18837;46.832;16.838;2023-04-23T08:01:32;15.20;84.50
32366;DHT22;18837;46.832;16.838;2023-04-23T08:03:58;15.30;84.80
32366;DHT22;18837;46.832;16.838;2023-04-23T08:06:25;15.40;85.10
32366;DHT22;18837;46.832;16.838;2023-04-23T08:08:51;15.40;85.20
32366;DHT22;18837;46.832;16.838;2023-04-23T08:11:20;15.50;84.90
32366;DHT22;18837;46.832;16.838;2023-04-23T08:13:46;15.60;85.30
32366;DHT22;18837;46.832;16.838;2023-04-23T08:16:12;15.60;85.60
32366;DHT22;18837;46.832;16.838;2023-04-23T08:18:37;15.70;86.40
32366;DHT22;18837;46.832;16.838;2023-04-23T08:21:04;15.80;85.80
32366;DHT22;18837;46.832;16.838;2023-04-23T08:23:30;15.80;86.60
32366;DHT22;18837;46.832;16.838;2023-04-23T08:25:57;15.90;86.50
32366;DHT22;18837;46.832;16.838;2023-04-23T08:28:23;15.90;86.70
32366;DHT22;18837;46.832;16.838;2023-04-23T08:30:49;16.00;86.80
32366;DHT22;18837;46.832;16.838;2023-04-23T08:33:15;16.10;86.80
32366;DHT22;18837;46.832;16.838;2023-04-23T08:35:41;16.10;86.60
32366;DHT22;18837;46.832;16.838;2023-04-23T08:38:07;16.20;86.40
32366;DHT22;18837;46.832;16.838;2023-04-23T08:40:35;16.20;86.40
32366;DHT22;18837;46.832;16.838;2023-04-23T08:43:08;16.30;87.00
32366;DHT22;18837;46.832;16.838;2023-04-23T08:45:38;16.30;86.20
32366;DHT22;18837;46.832;16.838;2023-04-23T08:48:06;16.30;85.90
32366;DHT22;18837;46.832;16.838;2023-04-23T08:50:36;16.50;85.70
32366;DHT22;18837;46.832;16.838;2023-04-23T08:53:03;16.50;85.90
32366;DHT22;18837;46.832;16.838;2023-04-23T08:55:33;16.50;86.20
32366;DHT22;18837;46.832;16.838;2023-04-23T08:58:00;16.60;85.80
32366;DHT22;18837;46.832;16.838;2023-04-23T09:00:29;16.60;85.10
32366;DHT22;18837;46.832;16.838;2023-04-23T09:02:55;16.60;85.60
32366;DHT22;18837;46.832;16.838;2023-04-23T09:05:21;16.60;86.80
32366;DHT22;18837;46.832;16.838;2023-04-23T09:07:47;16.70;86.50
32366;DHT22;18837;46.832;16.838;2023-04-23T09:10:13;16.70;86.10
32366;DHT22;18837;46.832;16.838;2023-04-23T09:12:40;16.70;86.00
32366;DHT22;18837;46.832;16.838;2023-04-23T09:15:07;16.80;86.30
32366;DHT22;18837;46.832;16.838;2023-04-23T09:17:42;16.80;87.10
32366;DHT22;18837;46.832;16.838;2023-04-23T09:20:10;16.90;84.80
32366;DHT22;18837;46.832;16.838;2023-04-23T09:25:07;17.20;74.50
32366;DHT22;18837;46.832;16.838;2023-04-23T09:27:33;17.30;74.70
32366;DHT22;18837;46.832;16.838;2023-04-23T09:30:02;17.40;76.20
32366;DHT22;18837;46.832;16.838;2023-04-23T09:32:33;17.40;79.60
32366;DHT22;18837;46.832;16.838;2023-04-23T09:35:01;17.40;79.90
32366;DHT22;18837;46.832;16.838;2023-04-23T09:37:27;17.50;80.30
32366;DHT22;18837;46.832;16.838;2023-04-23T09:39:53;17.50;80.70
32366;DHT22;18837;46.832;16.838;2023-04-23T09:42:23;17.50;80.90
32366;DHT22;18837;46.832;16.838;2023-04-23T09:44:56;17.50;81.20
32366;DHT22;18837;46.832;16.838;2023-04-23T09:47:23;17.60;81.50
32366;DHT22;18837;46.832;16.838;2023-04-23T09:49:49;17.60;80.80
32366;DHT22;18837;46.832;16.838;2023-04-23T09:52:15;17.60;82.50
32366;DHT22;18837;46.832;16.838;2023-04-23T09:54:43;17.60;82.50
32366;DHT22;18837;46.832;16.838;2023-04-23T09:57:11;17.70;82.30
32366;DHT22;18837;46.832;16.838;2023-04-23T09:59:37;17.70;83.00
32366;DHT22;18837;46.832;16.838;2023-04-23T10:02:05;17.80;82.90
32366;DHT22;18837;46.832;16.838;2023-04-23T10:04:32;17.90;81.60
32366;DHT22;18837;46.832;16.838;2023-04-23T10:07:00;17.90;81.70
32366;DHT22;18837;46.832;16.838;2023-04-23T10:09:30;17.90;81.30
32366;DHT22;18837;46.832;16.838;2023-04-23T10:11:57;17.90;81.50
32366;DHT22;18837;46.832;16.838;2023-04-23T10:14:25;17.90;81.00
32366;DHT22;18837;46.832;16.838;2023-04-23T10:17:02;17.90;82.30
32366;DHT22;18837;46.832;16.838;2023-04-23T10:19:28;17.90;81.70
32366;DHT22;18837;46.832;16.838;2023-04-23T10:21:56;18.00;82.80
32366;DHT22;18837;46.832;16.838;2023-04-23T10:24:23;18.00;81.90
32366;DHT22;18837;46.832;16.838;2023-04-23T10:26:52;18.10;82.40
32366;DHT22;18837;46.832;16.838;2023-04-23T10:29:26;18.10;82.60
32366;DHT22;18837;46.832;16.838;2023-04-23T10:31:55;18.10;80.40
32366;DHT22;18837;46.832;16.838;2023-04-23T10:34:24;18.10;81.50
32366;DHT22;18837;46.832;16.838;2023-04-23T10:36:50;18.20;83.50
32366;DHT22;18837;46.832;16.838;2023-04-23T10:39:22;18.30;82.50
32366;DHT22;18837;46.832;16.838;2023-04-23T10:41:48;18.30;81.00
32366;DHT22;18837;46.832;16.838;2023-04-23T10:44:14;18.30;82.30
32366;DHT22;18837;46.832;16.838;2023-04-23T10:46:56;18.40;81.60
32366;DHT22;18837;46.832;16.838;2023-04-23T10:49:23;18.50;82.80
32366;DHT22;18837;46.832;16.838;2023-04-23T10:52:03;18.50;83.90
32366;DHT22;18837;46.832;16.838;2023-04-23T10:54:33;18.60;82.50
32366;DHT22;18837;46.832;16.838;2023-04-23T10:57:04;18.70;81.90
32366;DHT22;18837;46.832;16.838;2023-04-23T10:59:31;18.80;79.40
32366;DHT22;18837;46.832;16.838;2023-04-23T11:02:07;18.80;80.60
32366;DHT22;18837;46.832;16.838;2023-04-23T11:04:35;18.90;81.10
32366;DHT22;18837;46.832;16.838;2023-04-23T11:07:06;18.90;80.80
32366;DHT22;18837;46.832;16.838;2023-04-23T11:12:02;19.00;80.70
32366;DHT22;18837;46.832;16.838;2023-04-23T11:14:45;19.00;82.40
32366;DHT22;18837;46.832;16.838;2023-04-23T11:17:12;19.00;81.40
32366;DHT22;18837;46.832;16.838;2023-04-23T11:19:40;19.10;79.50
32366;DHT22;18837;46.832;16.838;2023-04-23T11:22:13;19.10;79.80
32366;DHT22;18837;46.832;16.838;2023-04-23T11:24:40;19.20;77.20
32366;DHT22;18837;46.832;16.838;2023-04-23T11:27:11;19.30;78.20
32366;DHT22;18837;46.832;16.838;2023-04-23T11:29:40;19.40;77.30
32366;DHT22;18837;46.832;16.838;2023-04-23T11:32:06;19.40;77.30
32366;DHT22;18837;46.832;16.838;2023-04-23T11:34:39;19.40;76.60
32366;DHT22;18837;46.832;16.838;2023-04-23T11:37:09;19.40;78.40
32366;DHT22;18837;46.832;16.838;2023-04-23T11:39:35;19.40;79.70
32366;DHT22;18837;46.832;16.838;2023-04-23T11:42:01;19.40;76.80
32366;DHT22;18837;46.832;16.838;2023-04-23T11:44:28;19.60;77.00
32366;DHT22;18837;46.832;16.838;2023-04-23T11:46:58;19.60;76.80
32366;DHT22;18837;46.832;16.838;2023-04-23T11:49:25;19.70;76.10
32366;DHT22;18837;46.832;16.838;2023-04-23T11:51:51;19.70;75.80
32366;DHT22;18837;46.832;16.838;2023-04-23T11:54:16;19.70;75.50
32366;DHT22;18837;46.832;16.838;2023-04-23T11:56:43;19.70;74.50
32366;DHT22;18837;46.832;16.838;2023-04-23T11:59:10;19.70;75.70
32366;DHT22;18837;46.832;16.838;2023-04-23T12:01:40;19.70;74.10
32366;DHT22;18837;46.832;16.838;2023-04-23T12:04:15;19.70;75.00
32366;DHT22;18837;46.832;16.838;2023-04-23T12:06:43;19.60;74.80
32366;DHT22;18837;46.832;16.838;2023-04-23T12:09:10;19.60;75.20
32366;DHT22;18837;46.832;16.838;2023-04-23T12:11:38;19.60;75.30
32366;DHT22;18837;46.832;16.838;2023-04-23T12:14:04;19.60;73.70
32366;DHT22;18837;46.832;16.838;2023-04-23T12:16:43;19.60;74.20
32366;DHT22;18837;46.832;16.838;2023-04-23T12:19:18;19.60;75.70
32366;DHT22;18837;46.832;16.838;2023-04-23T12:21:49;19.60;74.70
32366;DHT22;18837;46.832;16.838;2023-04-23T12:24:16;19.60;76.20
32366;DHT22;18837;46.832;16.838;2023-04-23T12:26:42;19.70;74.70
32366;DHT22;18837;46.832;16.838;2023-04-23T12:29:08;19.70;73.80
32366;DHT22;18837;46.832;16.838;2023-04-23T12:31:37;19.70;74.20
32366;DHT22;18837;46.832;16.838;2023-04-23T12:34:08;19.70;74.60
32366;DHT22;18837;46.832;16.838;2023-04-23T12:36:35;19.70;74.70
32366;DHT22;18837;46.832;16.838;2023-04-23T12:41:56;19.80;74.00
32366;DHT22;18837;46.832;16.838;2023-04-23T12:44:24;19.80;73.90
32366;DHT22;18837;46.832;16.838;2023-04-23T12:46:59;19.80;74.40
32366;DHT22;18837;46.832;16.838;2023-04-23T12:49:25;19.90;73.30
32366;DHT22;18837;46.832;16.838;2023-04-23T12:51:53;19.90;73.50
32366;DHT22;18837;46.832;16.838;2023-04-23T12:54:26;19.90;74.10
32366;DHT22;18837;46.832;16.838;2023-04-23T12:56:52;19.90;74.10
32366;DHT22;18837;46.832;16.838;2023-04-23T12:59:18;19.90;73.90
32366;DHT22;18837;46.832;16.838;2023-04-23T13:01:44;20.00;73.80
32366;DHT22;18837;46.832;16.838;2023-04-23T13:04:10;20.00;73.20
32366;DHT22;18837;46.832;16.838;2023-04-23T13:06:36;20.00;74.30
32366;DHT22;18837;46.832;16.838;2023-04-23T13:09:01;20.00;74.00
32366;DHT22;18837;46.832;16.838;2023-04-23T13:11:30;20.00;74.20
32366;DHT22;18837;46.832;16.838;2023-04-23T13:13:56;20.00;74.60
32366;DHT22;18837;46.832;16.838;2023-04-23T13:16:22;20.00;75.00
32366;DHT22;18837;46.832;16.838;2023-04-23T13:18:49;20.10;74.40
32366;DHT22;18837;46.832;16.838;2023-04-23T13:21:18;20.10;74.00
32366;DHT22;18837;46.832;16.838;2023-04-23T13:23:44;20.10;74.10
32366;DHT22;18837;46.832;16.838;2023-04-23T13:26:10;20.10;74.40
32366;DHT22;18837;46.832;16.838;2023-04-23T13:28:36;20.10;73.20
32366;DHT22;18837;46.832;16.838;2023-04-23T13:31:02;20.10;73.80
32366;DHT22;18837;46.832;16.838;2023-04-23T13:33:29;20.10;74.20
32366;DHT22;18837;46.832;16.838;2023-04-23T13:35:56;20.10;72.30
32366;DHT22;18837;46.832;16.838;2023-04-23T13:38:26;20.10;73.00
32366;DHT22;18837;46.832;16.838;2023-04-23T13:40:52;20.10;72.50
32366;DHT22;18837;46.832;16.838;2023-04-23T13:43:18;20.10;72.40
32366;DHT22;18837;46.832;16.838;2023-04-23T13:45:45;20.10;72.60
32366;DHT22;18837;46.832;16.838;2023-04-23T13:48:14;20.10;72.60
32366;DHT22;18837;46.832;16.838;2023-04-23T13:50:41;20.10;71.50
32366;DHT22;18837;46.832;16.838;2023-04-23T13:53:10;20.10;72.30
32366;DHT22;18837;46.832;16.838;2023-04-23T13:55:37;20.10;72.30
32366;DHT22;18837;46.832;16.838;2023-04-23T13:58:04;20.10;72.40
32366;DHT22;18837;46.832;16.838;2023-04-23T14:00:30;20.20;72.40
32366;DHT22;18837;46.832;16.838;2023-04-23T14:02:56;20.20;72.10
32366;DHT22;18837;46.832;16.838;2023-04-23T14:05:22;20.20;72.70
32366;DHT22;18837;46.832;16.838;2023-04-23T14:07:47;20.20;72.60
32366;DHT22;18837;46.832;16.838;2023-04-23T14:10:13;20.20;72.60
32366;DHT22;18837;46.832;16.838;2023-04-23T14:12:40;20.20;72.90
32366;DHT22;18837;46.832;16.838;2023-04-23T14:15:07;20.30;73.00
32366;DHT22;18837;46.832;16.838;2023-04-23T14:17:33;20.20;71.80
32366;DHT22;18837;46.832;16.838;2023-04-23T14:19:59;20.30;71.60
32366;DHT22;18837;46.832;16.838;2023-04-23T14:22:25;20.30;71.10
32366;DHT22;18837;46.832;16.838;2023-04-23T14:24:56;20.30;71.80
32366;DHT22;18837;46.832;16.838;2023-04-23T14:27:25;20.30;72.10
32366;DHT22;18837;46.832;16.838;2023-04-23T14:32:21;20.30;71.10
32366;DHT22;18837;46.832;16.838;2023-04-23T14:34:46;20.30;72.10
32366;DHT22;18837;46.832;16.838;2023-04-23T14:37:12;20.30;72.50
32366;DHT22;18837;46.832;16.838;2023-04-23T14:39:39;20.20;72.40
32366;DHT22;18837;46.832;16.838;2023-04-23T14:42:05;20.20;72.70
32366;DHT22;18837;46.832;16.838;2023-04-23T14:44:31;20.10;72.90
32366;DHT22;18837;46.832;16.838;2023-04-23T14:46:57;20.10;73.10
32366;DHT22;18837;46.832;16.838;2023-04-23T14:49:23;20.10;73.70
32366;DHT22;18837;46.832;16.838;2023-04-23T14:51:50;20.00;73.20
32366;DHT22;18837;46.832;16.838;2023-04-23T14:54:19;20.00;74.20
32366;DHT22;18837;46.832;16.838;2023-04-23T14:56:45;20.00;74.10
32366;DHT22;18837;46.832;16.838;2023-04-23T14:59:11;20.00;73.70
32366;DHT22;18837;46.832;16.838;2023-04-23T15:01:37;19.90;73.60
32366;DHT22;18837;46.832;16.838;2023-04-23T15:04:03;19.90;73.20
32366;DHT22;18837;46.832;16.838;2023-04-23T15:06:29;19.90;72.30
32366;DHT22;18837;46.832;16.838;2023-04-23T15:08:55;19.90;72.90
32366;DHT22;18837;46.832;16.838;2023-04-23T15:11:21;19.80;73.00
32366;DHT22;18837;46.832;16.838;2023-04-23T15:14:18;19.80;72.80
32366;DHT22;18837;46.832;16.838;2023-04-23T15:16:47;19.80;72.60
32366;DHT22;18837;46.832;16.838;2023-04-23T15:19:13;19.70;72.60
32366;DHT22;18837;46.832;16.838;2023-04-23T15:21:39;19.70;72.40
32366;DHT22;18837;46.832;16.838;2023-04-23T15:24:16;19.70;71.60